Time;durP1;ratioP1;P1;durP2;ratioP2;P2;SDS_P1;SDS_P2;PMS_P1;PMS_P2;Temp;Humidity;BMP_temperature;BMP_pressure;BME280_temperature;BME280_humidity;BME280_pressure;Samples;Min_cycle;Max_cycle;Signal;HPM_P1;HPM_P2
2024/02/09 00:01:10;;;;;;;0.00;0.00;;;;;;;5.57;100.00;96783.19;4986814;28;20047;-61
2024/02/09 00:03:38;;;;;;;0.00;0.00;;;;;;;5.58;100.00;96781.25;4986346;28;20046;-60
2024/02/09 00:06:06;;;;;;;0.00;0.00;;;;;;;5.57;100.00;96774.97;4987337;28;20046;-61
2024/02/09 00:08:36;;;;;;;0.00;0.00;;;;;;;5.54;100.00;96782.06;4987720;28;20046;-59
2024/02/09 00:11:07;;;;;;;0.75;0.75;;;;;;;5.53;100.00;96780.47;4986824;28;20054;-60
2024/02/09 00:13:34;;;;;;;0.00;0.00;;;;;;;5.50;100.00;96775.84;4982283;28;20047;-59
2024/02/09 00:16:04;;;;;;;0.00;0.00;;;;;;;5.49;100.00;96768.00;4986366;28;20045;-60
2024/02/09 00:18:32;;;;;;;0.00;0.00;;;;;;;5.49;100.00;96768.00;4986931;28;20047;-60
2024/02/09 00:20:59;;;;;;;0.93;0.68;;;;;;;5.49;100.00;96765.25;4986992;28;20105;-60
2024/02/09 00:23:28;;;;;;;0.00;0.00;;;;;;;5.48;100.00;96771.94;4987389;28;20539;-61
2024/02/09 00:25:56;;;;;;;0.00;0.00;;;;;;;5.46;100.00;96769.59;4986573;28;20042;-60
2024/02/09 00:28:23;;;;;;;0.00;0.00;;;;;;;5.42;100.00;96763.38;4987123;28;20049;-60
2024/02/09 00:30:51;;;;;;;0.00;0.00;;;;;;;5.40;100.00;96760.25;4987092;28;20050;-61
2024/02/09 00:33:18;;;;;;;0.00;0.00;;;;;;;5.37;100.00;96766.56;4987233;28;20050;-60
2024/02/09 00:35:46;;;;;;;0.00;0.00;;;;;;;5.39;100.00;96757.94;4986720;28;20042;-60
2024/02/09 00:38:15;;;;;;;0.32;0.32;;;;;;;5.39;100.00;96763.41;4987365;28;20133;-62
2024/02/09 00:40:42;;;;;;;0.00;0.00;;;;;;;5.36;100.00;96743.06;4986077;28;20057;-60
2024/02/09 00:43:11;;;;;;;0.00;0.00;;;;;;;5.33;100.00;96754.84;4986667;28;20504;-65
2024/02/09 00:45:38;;;;;;;0.00;0.00;;;;;;;5.30;100.00;96744.69;4968896;28;20042;-60
2024/02/09 00:48:07;;;;;;;0.00;0.00;;;;;;;5.31;100.00;96745.47;4986726;28;20648;-60
2024/02/09 00:50:34;;;;;;;0.00;0.00;;;;;;;5.31;100.00;96740.78;4986224;28;20061;-61
2024/02/09 00:53:04;;;;;;;0.10;0.10;;;;;;;5.30;100.00;96739.19;4986206;28;20413;-62
2024/02/09 00:55:32;;;;;;;0.00;0.00;;;;;;;5.29;100.00;96731.41;4986063;28;20039;-60
2024/02/09 00:58:00;;;;;;;0.00;0.00;;;;;;;5.29;100.00;96732.19;4986059;28;20429;-61
2024/02/09 01:00:30;;;;;;;0.00;0.00;;;;;;;5.28;100.00;96730.63;4986226;28;20523;-61
2024/02/09 01:02:59;;;;;;;0.60;0.60;;;;;;;5.28;100.00;96732.56;4971372;28;20069;-60
2024/02/09 01:05:26;;;;;;;0.00;0.00;;;;;;;5.27;100.00;96731.03;4990735;28;20046;-61
2024/02/09 01:07:53;;;;;;;0.15;0.15;;;;;;;5.23;100.00;96733.03;4987026;28;20497;-60
2024/02/09 01:10:21;;;;;;;0.00;0.00;;;;;;;5.22;100.00;96721.28;4990602;28;20069;-61
2024/02/09 02:46:41;;;;;;;0.00;0.00;;;;;;;4.99;100.00;96646.31;4989224;28;20054;-61
2024/02/09 03:05:29;;;;;;;0.00;0.00;;;;;;;5.01;100.00;96633.78;4984801;28;20054;-62
2024/02/09 03:07:57;;;;;;;0.00;0.00;;;;;;;5.01;100.00;96639.25;4985085;28;20400;-61
2024/02/09 03:10:27;;;;;;;0.00;0.00;;;;;;;5.01;100.00;96647.47;4986130;28;20404;-61
2024/02/09 03:12:54;;;;;;;0.13;0.13;;;;;;;5.00;100.00;96626.75;4988248;28;20411;-61
2024/02/09 03:15:23;;;;;;;0.00;0.00;;;;;;;5.01;100.00;96633.00;4988096;28;20101;-60
2024/02/09 03:17:51;;;;;;;0.00;0.00;;;;;;;5.00;100.00;96626.75;4986638;28;20058;-61
2024/02/09 03:20:19;;;;;;;0.00;0.00;;;;;;;5.02;100.00;96629.06;4988501;28;20058;-61
2024/02/09 03:22:47;;;;;;;0.00;0.00;;;;;;;5.00;100.00;96618.53;4987683;28;20038;-61
2024/02/09 03:25:14;;;;;;;0.28;0.28;;;;;;;4.99;100.00;96619.72;4988165;28;20062;-61
2024/02/09 03:27:42;;;;;;;0.00;0.00;;;;;;;5.00;100.00;96625.97;4969820;28;20053;-61
2024/02/09 03:30:09;;;;;;;0.00;0.00;;;;;;;5.03;100.00;96619.69;4988008;28;20691;-62
2024/02/09 03:32:44;;;;;;;0.00;0.00;;;;;;;5.03;100.00;96614.94;4987153;28;20857;-61
2024/02/09 03:35:12;;;;;;;0.00;0.00;;;;;;;5.05;100.00;96617.28;4986452;28;20053;-62
2024/02/09 03:37:44;;;;;;;0.00;0.00;;;;;;;5.04;100.00;96621.22;4987711;28;20046;-61
2024/02/09 03:40:12;;;;;;;0.00;0.00;;;;;;;5.03;100.00;96620.44;4987014;28;20054;-61
2024/02/09 03:42:41;;;;;;;0.43;0.43;;;;;;;5.01;100.00;96611.84;4980913;28;20046;-61
2024/02/09 03:45:09;;;;;;;0.00;0.00;;;;;;;5.02;100.00;96599.72;4980902;28;20136;-61
2024/02/09 03:47:36;;;;;;;0.00;0.00;;;;;;;5.02;100.00;96607.94;4987349;28;20066;-61
2024/02/09 03:50:04;;;;;;;0.00;0.00;;;;;;;5.02;100.00;96599.72;4987009;28;20716;-61
2024/02/09 03:52:32;;;;;;;0.00;0.00;;;;;;;5.02;100.00;96602.44;4987445;28;20046;-61
2024/02/09 03:55:00;;;;;;;0.00;0.00;;;;;;;5.03;100.00;96598.50;4986400;28;20085;-61
2024/02/09 03:57:29;;;;;;;0.00;0.00;;;;;;;5.01;100.00;96595.41;4987359;28;20053;-61
2024/02/09 03:59:58;;;;;;;0.00;0.00;;;;;;;4.99;100.00;96603.25;4986770;28;20055;-62
2024/02/09 04:02:26;;;;;;;0.00;0.00;;;;;;;5.00;100.00;96596.59;4986961;28;20825;-62
2024/02/09 04:04:54;;;;;;;0.00;0.00;;;;;;;5.01;100.00;96595.41;4986770;28;20774;-61
2024/02/09 04:07:22;;;;;;;0.00;0.00;;;;;;;5.01;100.00;96594.63;4987447;28;20058;-61
2024/02/09 04:09:50;;;;;;;0.00;0.00;;;;;;;5.02;100.00;96590.69;4986112;28;20523;-61
2024/02/09 04:12:37;;;;;;;0.00;0.00;;;;;;;5.01;100.00;96589.13;4987293;28;20519;-61
2024/02/09 04:15:05;;;;;;;0.00;0.00;;;;;;;5.01;100.00;96595.41;4947400;28;20054;-62
2024/02/09 04:17:33;;;;;;;0.00;0.00;;;;;;;5.00;100.00;96598.56;4986093;28;20057;-62
2024/02/09 04:20:00;;;;;;;0.00;0.00;;;;;;;5.00;100.00;96599.34;4986181;28;20061;-61
2024/02/09 04:22:27;;;;;;;0.00;0.00;;;;;;;4.99;100.00;96603.25;4986004;28;20050;-62
2024/02/09 04:24:57;;;;;;;0.00;0.00;;;;;;;4.98;100.00;96589.97;4986695;28;20046;-61
2024/02/09 04:27:24;;;;;;;0.00;0.00;;;;;;;4.97;100.00;96597.41;4986690;28;20399;-61
2024/02/09 04:29:52;;;;;;;0.00;0.00;;;;;;;4.96;100.00;96586.84;4985787;28;20051;-62
2024/02/09 04:32:19;;;;;;;0.00;0.00;;;;;;;4.96;100.00;96604.06;4986402;28;20064;-62
2024/02/09 04:34:46;;;;;;;0.00;0.00;;;;;;;4.96;100.00;96600.56;4986304;28;20619;-61
2024/02/09 04:37:14;;;;;;;0.00;0.00;;;;;;;4.94;100.00;96595.50;4982820;28;20404;-62
2024/02/09 04:39:41;;;;;;;0.00;0.00;;;;;;;4.94;100.00;96590.00;4979946;28;20042;-61
2024/02/09 04:42:11;;;;;;;0.00;0.00;;;;;;;4.95;100.00;96596.28;4986707;28;20054;-61
2024/02/09 04:44:38;;;;;;;0.00;0.00;;;;;;;4.92;100.00;96592.38;4986535;28;20050;-61
2024/02/09 04:47:06;;;;;;;0.00;0.00;;;;;;;4.91;100.00;96599.03;4986601;28;20057;-61
2024/02/09 04:49:34;;;;;;;0.00;0.00;;;;;;;4.90;100.00;96608.44;4986374;28;20515;-61
2024/02/09 04:52:01;;;;;;;0.00;0.00;;;;;;;4.88;100.00;96591.63;4986628;28;20050;-61
2024/02/09 04:54:28;;;;;;;0.00;0.00;;;;;;;4.85;100.00;96586.97;4985948;28;20073;-61
2024/02/09 04:56:56;;;;;;;0.00;0.00;;;;;;;4.86;100.00;96592.06;4961826;28;20046;-62
2024/02/09 04:59:30;;;;;;;0.22;0.22;;;;;;;4.86;100.00;96599.50;4986233;28;20072;-62
2024/02/09 05:01:58;;;;;;;0.00;0.00;;;;;;;4.84;100.00;96588.16;4972931;28;20054;-61
2024/02/09 05:04:25;;;;;;;0.00;0.00;;;;;;;4.83;100.00;96597.56;4986837;28;20042;-60
2024/02/09 05:06:53;;;;;;;0.00;0.00;;;;;;;4.83;100.00;96594.81;4986078;28;20790;-61
2024/02/09 05:09:23;;;;;;;0.00;0.00;;;;;;;4.82;100.00;96587.78;4986161;28;20054;-61
2024/02/09 05:11:51;;;;;;;0.00;0.00;;;;;;;4.83;100.00;96600.31;4970514;28;20059;-61
2024/02/09 05:14:19;;;;;;;0.00;0.00;;;;;;;4.82;100.00;96605.00;4983136;28;20042;-60
2024/02/09 05:16:47;;;;;;;0.00;0.00;;;;;;;4.83;100.00;96597.56;4986322;28;20050;-61
2024/02/09 05:19:14;;;;;;;0.00;0.00;;;;;;;4.83;100.00;96601.09;4980762;28;20053;-60
2024/02/09 05:21:42;;;;;;;0.00;0.00;;;;;;;4.83;100.00;96594.81;4985169;28;20050;-61
2024/02/09 05:24:09;;;;;;;0.00;0.00;;;;;;;4.84;100.00;96601.88;4986947;28;20070;-61
2024/02/09 05:26:37;;;;;;;0.00;0.00;;;;;;;4.82;100.00;96599.53;4986374;28;20050;-61
2024/02/09 05:29:04;;;;;;;0.00;0.00;;;;;;;4.82;100.00;96594.03;4986207;28;20057;-61
2024/02/09 05:31:32;;;;;;;0.00;0.00;;;;;;;4.82;100.00;96596.00;4985848;28;20590;-61
2024/02/09 05:34:03;;;;;;;0.00;0.00;;;;;;;4.83;100.00;96606.56;4986580;28;20061;-61
2024/02/09 05:36:32;;;;;;;0.00;0.00;;;;;;;4.81;100.00;96598.00;4985992;28;21073;-62
2024/02/09 05:39:01;;;;;;;0.00;0.00;;;;;;;4.83;100.00;96601.09;4985269;28;20065;-61
2024/02/09 05:41:28;;;;;;;0.22;0.22;;;;;;;4.87;100.00;96601.06;4986481;28;20065;-62
2024/02/09 05:43:58;;;;;;;0.00;0.00;;;;;;;4.90;100.00;96608.44;4982948;28;20500;-62
2024/02/09 05:46:26;;;;;;;0.00;0.00;;;;;;;4.89;100.00;96607.69;4985883;28;20038;-61
2024/02/09 05:48:55;;;;;;;0.00;0.00;;;;;;;4.92;100.00;96603.34;4999417;28;20057;-61
2024/02/09 05:51:24;;;;;;;0.00;0.00;;;;;;;4.93;100.00;96600.19;4988901;28;20046;-62
2024/02/09 05:53:52;;;;;;;0.00;0.00;;;;;;;4.93;100.00;96605.66;4989810;28;20053;-62
2024/02/09 05:56:21;;;;;;;0.00;0.00;;;;;;;4.94;100.00;96590.00;4989012;28;20416;-62
2024/02/09 05:58:54;;;;;;;0.00;0.00;;;;;;;4.91;100.00;96596.31;4989439;28;20046;-61
2024/02/09 06:01:32;;;;;;;0.00;0.00;;;;;;;4.89;100.00;96593.97;4988878;28;20061;-61
2024/02/09 06:04:00;;;;;;;0.00;0.00;;;;;;;4.89;100.00;96604.16;4989498;28;20050;-61
2024/02/09 06:06:27;;;;;;;0.00;0.00;;;;;;;4.90;100.00;96601.00;4989672;28;20042;-62
2024/02/09 06:08:56;;;;;;;0.00;0.00;;;;;;;4.87;100.00;96598.31;4989375;28;20046;-62
2024/02/09 06:11:24;;;;;;;0.00;0.00;;;;;;;4.87;100.00;96590.84;4982578;28;20423;-62
2024/02/09 06:13:52;;;;;;;0.00;0.00;;;;;;;4.89;100.00;96590.47;4988691;28;20053;-62
2024/02/09 06:16:20;;;;;;;0.00;0.00;;;;;;;4.90;100.00;96594.75;4971144;28;20042;-62
2024/02/09 06:18:49;;;;;;;0.00;0.00;;;;;;;4.91;100.00;96579.88;4988977;28;20076;-62
2024/02/09 06:21:17;;;;;;;0.00;0.00;;;;;;;4.91;100.00;96588.09;4988289;28;20065;-62
2024/02/09 06:23:45;;;;;;;0.00;0.00;;;;;;;4.91;100.00;96591.59;4986941;28;20050;-62
2024/02/09 06:26:16;;;;;;;0.00;0.00;;;;;;;4.93;100.00;96599.41;4988682;28;20061;-62
2024/02/09 06:28:46;;;;;;;0.00;0.00;;;;;;;4.94;100.00;96590.00;4988626;28;20038;-62
2024/02/09 06:31:21;;;;;;;0.00;0.00;;;;;;;4.95;100.00;96596.28;4971376;28;20054;-62
2024/02/09 06:33:50;;;;;;;0.00;0.00;;;;;;;4.94;100.00;96595.50;4988873;28;20695;-62
2024/02/09 06:36:18;;;;;;;0.00;0.00;;;;;;;4.94;100.00;96595.50;4988905;28;20058;-62
2024/02/09 06:38:46;;;;;;;0.00;0.00;;;;;;;4.95;100.00;96586.06;4988736;28;20046;-61
2024/02/09 06:41:13;;;;;;;0.00;0.00;;;;;;;4.93;100.00;96599.41;4988185;28;20057;-61
2024/02/09 06:43:41;;;;;;;0.00;0.00;;;;;;;4.93;100.00;96599.41;4987052;28;20523;-61
2024/02/09 06:46:09;;;;;;;0.00;0.00;;;;;;;4.93;100.00;96602.16;4987641;28;20057;-62
2024/02/09 06:48:36;;;;;;;0.00;0.00;;;;;;;4.93;100.00;96600.19;4988277;28;20046;-63
2024/02/09 06:51:05;;;;;;;0.00;0.00;;;;;;;4.94;100.00;96595.50;4988158;28;20106;-61
2024/02/09 06:53:32;;;;;;;0.00;0.00;;;;;;;4.92;100.00;96597.88;4988497;28;20051;-62
2024/02/09 06:56:00;;;;;;;0.00;0.00;;;;;;;4.92;100.00;96597.88;4988099;28;20692;-62
2024/02/09 06:58:28;;;;;;;0.00;0.00;;;;;;;4.92;100.00;96592.38;4987252;28;20081;-62
2024/02/09 07:00:56;;;;;;;0.00;0.00;;;;;;;4.93;100.00;96593.94;4986155;28;20046;-62
2024/02/09 07:03:27;;;;;;;0.00;0.00;;;;;;;4.92;100.00;96603.34;4988821;28;20062;-62
2024/02/09 07:06:01;;;;;;;0.00;0.00;;;;;;;4.90;100.00;96586.53;4988208;28;20608;-62
2024/02/09 07:08:36;;;;;;;0.00;0.00;;;;;;;4.91;100.00;96593.56;4987893;28;20065;-62
2024/02/09 07:11:04;;;;;;;0.00;0.00;;;;;;;4.91;100.00;96596.31;4986647;28;20050;-62
2024/02/09 07:13:31;;;;;;;0.00;0.00;;;;;;;4.90;100.00;96598.25;4988697;28;20053;-61
2024/02/09 07:16:02;;;;;;;0.03;0.03;;;;;;;4.94;100.00;96598.22;4986873;28;20050;-62
2024/02/09 07:18:31;;;;;;;0.05;0.05;;;;;;;4.91;100.00;96601.78;4988107;28;20053;-61
2024/02/09 07:20:58;;;;;;;0.00;0.00;;;;;;;4.93;100.00;96602.16;4985787;28;20049;-62
2024/02/09 07:23:28;;;;;;;0.00;0.00;;;;;;;4.92;100.00;96592.38;4964738;28;20054;-61
2024/02/09 07:25:56;;;;;;;0.00;0.00;;;;;;;4.92;100.00;96598.63;4986906;28;20054;-62
2024/02/09 07:28:23;;;;;;;0.00;0.00;;;;;;;4.94;100.00;96595.50;4986947;28;20508;-61
2024/02/09 07:30:51;;;;;;;0.00;0.00;;;;;;;4.95;100.00;96607.25;4987053;28;20084;-62
2024/02/09 07:33:21;;;;;;;0.00;0.00;;;;;;;4.95;100.00;96608.00;4987257;28;20073;-61
2024/02/09 07:35:49;;;;;;;0.00;0.00;;;;;;;4.96;100.00;96603.28;4986306;28;20046;-61
2024/02/09 07:38:16;;;;;;;0.00;0.00;;;;;;;4.93;100.00;96602.94;4984709;28;20039;-61
2024/02/09 07:40:43;;;;;;;0.00;0.00;;;;;;;4.95;100.00;96607.25;4987674;28;20058;-61
2024/02/09 07:43:11;;;;;;;0.00;0.00;;;;;;;4.95;100.00;96601.75;4987379;28;20047;-62
2024/02/09 07:45:40;;;;;;;0.00;0.00;;;;;;;4.97;100.00;96615.81;4983752;28;20038;-61
2024/02/09 07:48:08;;;;;;;0.00;0.00;;;;;;;4.97;100.00;96605.63;4978543;28;20065;-61
2024/02/09 07:50:41;;;;;;;0.00;0.00;;;;;;;4.99;100.00;96616.19;4987772;28;20053;-62
2024/02/09 07:53:09;;;;;;;0.00;0.00;;;;;;;4.98;100.00;96612.66;4987177;28;20061;-61
2024/02/09 07:55:36;;;;;;;0.00;0.00;;;;;;;5.01;100.00;96611.06;4987960;28;20396;-62
2024/02/09 07:58:03;;;;;;;0.00;0.00;;;;;;;5.02;100.00;96610.66;4987447;28;20059;-61
2024/02/09 08:00:32;;;;;;;0.00;0.00;;;;;;;5.02;100.00;96613.41;4987892;28;20535;-61
2024/02/09 08:02:59;;;;;;;0.00;0.00;;;;;;;5.01;100.00;96614.59;4987084;28;20409;-62
2024/02/09 08:05:27;;;;;;;0.00;0.00;;;;;;;5.03;100.00;96614.94;4987398;28;20058;-61
2024/02/09 08:07:54;;;;;;;0.00;0.00;;;;;;;5.05;100.00;96612.59;4983100;28;20142;-62
2024/02/09 08:10:22;;;;;;;0.00;0.00;;;;;;;5.05;100.00;96615.34;4987391;28;21008;-59
2024/02/09 08:12:49;;;;;;;0.00;0.00;;;;;;;5.06;100.00;96607.88;4986963;28;20050;-62
2024/02/09 08:15:16;;;;;;;0.75;0.75;;;;;;;5.07;100.00;96612.97;4987098;28;20054;-61
2024/02/09 08:17:48;;;;;;;0.00;0.00;;;;;;;5.08;100.00;96621.97;4967933;28;20057;-61
2024/02/09 08:20:20;;;;;;;0.00;0.00;;;;;;;5.10;100.00;96616.84;4978134;28;20057;-61
2024/02/09 08:22:48;;;;;;;0.00;0.00;;;;;;;5.10;100.00;96622.31;4985135;28;20065;-63
2024/02/09 08:25:16;;;;;;;0.00;0.00;;;;;;;5.11;100.00;96630.13;4983528;28;20050;-61
2024/02/09 08:27:43;;;;;;;0.00;0.00;;;;;;;5.10;100.00;96625.06;4967225;28;20058;-62
2024/02/09 08:30:11;;;;;;;0.00;0.00;;;;;;;5.08;100.00;96633.72;4989385;28;20049;-62
2024/02/09 08:32:41;;;;;;;0.00;0.00;;;;;;;5.10;100.00;96642.28;4987689;28;20046;-62
2024/02/09 08:35:09;;;;;;;0.00;0.00;;;;;;;5.11;100.00;96641.09;4985395;28;20057;-64
2024/02/09 08:37:36;;;;;;;0.00;0.00;;;;;;;5.11;100.00;96646.56;4986559;28;20419;-62
2024/02/09 08:40:07;;;;;;;0.00;0.00;;;;;;;5.11;100.00;96649.31;4985649;28;20046;-63
2024/02/09 08:42:34;;;;;;;0.00;0.00;;;;;;;5.13;100.00;96655.19;4986307;28;20054;-63
2024/02/09 08:45:02;;;;;;;0.00;0.00;;;;;;;5.14;100.00;96653.19;4986554;28;20046;-62
2024/02/09 08:47:31;;;;;;;0.00;0.00;;;;;;;5.17;100.00;96658.66;4986661;28;20057;-62
2024/02/09 08:49:58;;;;;;;0.00;0.00;;;;;;;5.19;100.00;96661.75;4974551;28;20047;-62
2024/02/09 08:52:26;;;;;;;0.00;0.00;;;;;;;5.19;100.00;96661.00;4988073;28;20042;-62
2024/02/09 08:54:53;;;;;;;0.00;0.00;;;;;;;5.20;100.00;96666.06;4987448;28;20725;-62
2024/02/09 08:57:20;;;;;;;0.00;0.00;;;;;;;5.17;100.00;96661.41;4987259;28;20053;-64
2024/02/09 08:59:49;;;;;;;0.00;0.00;;;;;;;5.16;100.00;96662.59;4988009;28;20058;-64
2024/02/09 09:02:16;;;;;;;0.00;0.00;;;;;;;5.17;100.00;96663.34;4986807;28;20051;-62
2024/02/09 09:04:44;;;;;;;0.00;0.00;;;;;;;5.17;100.00;96661.41;4986687;28;20050;-62
2024/02/09 09:07:12;;;;;;;0.00;0.00;;;;;;;5.15;100.00;96663.78;4984415;28;20058;-62
2024/02/09 09:09:40;;;;;;;0.00;0.00;;;;;;;5.14;100.00;96675.91;4987335;28;20042;-62
2024/02/09 09:12:07;;;;;;;0.00;0.00;;;;;;;5.15;100.00;96661.03;4987344;28;20142;-62
2024/02/09 09:14:39;;;;;;;0.00;0.00;;;;;;;5.16;100.00;96668.09;4986951;28;20408;-63
2024/02/09 09:17:07;;;;;;;0.00;0.00;;;;;;;5.16;100.00;96670.81;4986720;28;20055;-62
2024/02/09 09:19:50;;;;;;;0.00;0.00;;;;;;;5.16;100.00;96662.59;4976373;28;20061;-63
2024/02/09 09:22:18;;;;;;;0.00;0.00;;;;;;;5.17;100.00;96664.13;4987378;28;20058;-63
2024/02/09 09:24:50;;;;;;;0.00;0.00;;;;;;;5.18;100.00;96665.72;4981561;28;20047;-62
2024/02/09 09:27:18;;;;;;;0.00;0.00;;;;;;;5.18;100.00;96682.16;4987422;28;20392;-63
2024/02/09 09:29:46;;;;;;;0.00;0.00;;;;;;;5.17;100.00;96669.63;4989644;28;20051;-62
2024/02/09 09:32:13;;;;;;;0.00;0.00;;;;;;;5.19;100.00;96677.47;4990994;28;20061;-62
2024/02/09 09:34:41;;;;;;;0.00;0.00;;;;;;;5.20;100.00;96679.78;4990073;28;20057;-63
2024/02/09 09:37:09;;;;;;;0.00;0.00;;;;;;;5.21;100.00;96672.34;4989637;28;20049;-63
2024/02/09 09:39:37;;;;;;;0.00;0.00;;;;;;;5.22;100.00;96673.88;4990854;28;20069;-62
2024/02/09 09:42:05;;;;;;;0.00;0.00;;;;;;;5.22;100.00;96671.13;4990785;28;20051;-63
2024/02/09 09:44:33;;;;;;;0.00;0.00;;;;;;;5.23;100.00;96662.50;4990321;28;20059;-63
2024/02/09 09:47:01;;;;;;;0.00;0.00;;;;;;;5.23;100.00;96662.50;4972388;28;20049;-62
2024/02/09 09:49:30;;;;;;;0.00;0.00;;;;;;;5.25;100.00;96675.81;4990067;28;20051;-63
2024/02/09 09:51:59;;;;;;;0.00;0.00;;;;;;;5.25;100.00;96676.59;4988998;28;20412;-62
2024/02/09 09:54:30;;;;;;;0.00;0.00;;;;;;;5.25;100.00;96682.06;4990910;28;20054;-62
2024/02/09 09:57:00;;;;;;;0.00;0.00;;;;;;;5.23;100.00;96676.22;4985668;28;20050;-62
2024/02/09 09:59:29;;;;;;;0.00;0.00;;;;;;;5.24;100.00;96669.53;4984841;28;20508;-62
2024/02/09 10:01:57;;;;;;;0.00;0.00;;;;;;;5.24;100.00;96672.28;4985125;28;20061;-62
2024/02/09 10:04:24;;;;;;;0.00;0.00;;;;;;;5.23;100.00;96673.47;4980014;28;20139;-63
2024/02/09 10:06:53;;;;;;;0.00;0.00;;;;;;;5.24;100.00;96664.06;4987514;28;20389;-62
2024/02/09 10:09:21;;;;;;;0.00;0.00;;;;;;;5.26;100.00;96664.44;4983483;28;20496;-61
2024/02/09 10:11:51;;;;;;;0.00;0.00;;;;;;;5.30;100.00;96667.91;4987885;28;20045;-65
2024/02/09 10:14:20;;;;;;;0.00;0.00;;;;;;;5.31;100.00;96658.50;4989122;28;20062;-62
2024/02/09 10:16:48;;;;;;;0.00;0.00;;;;;;;5.31;100.00;96666.72;4987415;28;20069;-62
2024/02/09 10:19:19;;;;;;;0.00;0.00;;;;;;;5.32;100.00;96668.28;4983756;28;20062;-62
2024/02/09 10:21:47;;;;;;;0.00;0.00;;;;;;;5.32;100.00;96662.78;4976615;28;20046;-61
2024/02/09 10:24:17;;;;;;;0.00;0.00;;;;;;;5.32;100.00;96657.28;4989543;28;20046;-62
2024/02/09 10:26:46;;;;;;;0.00;0.00;;;;;;;5.35;100.00;96664.72;4989626;28;20408;-61
2024/02/09 10:29:15;;;;;;;0.00;0.00;;;;;;;5.35;100.00;96658.44;4989113;28;20058;-62
2024/02/09 10:31:45;;;;;;;0.03;0.03;;;;;;;5.37;100.00;96659.63;4988946;28;20057;-61
2024/02/09 10:34:13;;;;;;;0.00;0.00;;;;;;;5.41;100.00;96657.59;4988741;28;20054;-61
2024/02/09 10:36:41;;;;;;;0.00;0.00;;;;;;;5.45;100.00;96655.56;4989762;28;20054;-61
2024/02/09 10:39:09;;;;;;;0.00;0.00;;;;;;;5.46;100.00;96654.41;4981892;28;20053;-61
2024/02/09 10:41:39;;;;;;;0.00;0.00;;;;;;;5.50;100.00;96659.84;4987096;28;20046;-62
2024/02/09 10:44:09;;;;;;;0.00;0.00;;;;;;;5.54;100.00;96666.06;4989377;28;20058;-61
2024/02/09 10:46:38;;;;;;;0.00;0.00;;;;;;;5.56;100.00;96668.41;4971315;28;20078;-61
2024/02/09 10:49:08;;;;;;;0.00;0.00;;;;;;;5.57;100.00;96664.44;4989465;28;20062;-62
2024/02/09 10:51:39;;;;;;;0.08;0.08;;;;;;;5.60;100.00;96663.63;4985971;28;20146;-61
2024/02/09 10:54:17;;;;;;;0.00;0.00;;;;;;;5.61;100.00;96659.72;4989677;28;20054;-61
2024/02/09 10:56:46;;;;;;;0.00;0.00;;;;;;;5.60;100.00;96663.63;4988279;28;20057;-61
2024/02/09 10:59:14;;;;;;;0.00;0.00;;;;;;;5.63;100.00;96669.09;4990003;28;20089;-63
2024/02/09 11:01:44;;;;;;;0.00;0.00;;;;;;;5.66;100.00;96667.47;4988456;28;20583;-62
2024/02/09 11:04:11;;;;;;;0.00;0.00;;;;;;;5.73;100.00;96670.13;4989595;28;20065;-62
2024/02/09 11:06:41;;;;;;;0.00;0.00;;;;;;;5.80;100.00;96668.06;4988706;28;20050;-63
2024/02/09 11:09:10;;;;;;;0.00;0.00;;;;;;;5.84;100.00;96673.50;4989049;28;20050;-62
2024/02/09 11:11:39;;;;;;;0.00;0.00;;;;;;;5.86;100.00;96666.44;4988241;28;20057;-63
2024/02/09 11:14:08;;;;;;;0.00;0.00;;;;;;;5.88;100.00;96679.75;4989359;28;20046;-62
2024/02/09 11:16:50;;;;;;;0.00;0.00;;;;;;;5.89;100.00;96673.84;4988620;28;20077;-62
2024/02/09 11:19:18;;;;;;;0.00;0.00;;;;;;;5.92;100.00;96670.28;4988682;28;20137;-62
2024/02/09 11:21:55;;;;;;;0.00;0.00;;;;;;;5.93;100.00;96671.06;4988841;28;20047;-62
2024/02/09 11:24:27;;;;;;;0.00;0.00;;;;;;;5.95;100.00;96674.19;4988823;28;20046;-62
2024/02/09 11:26:55;;;;;;;0.00;0.00;;;;;;;5.92;100.00;96675.78;4987836;28;20042;-62
2024/02/09 11:29:23;;;;;;;0.00;0.00;;;;;;;5.90;100.00;96669.16;4989098;28;20428;-62
2024/02/09 11:31:56;;;;;;;0.00;0.00;;;;;;;5.88;100.00;96664.06;4968326;28;20400;-62
2024/02/09 11:34:26;;;;;;;0.00;0.00;;;;;;;5.92;100.00;96672.25;4988995;28;20061;-62
2024/02/09 11:36:58;;;;;;;0.00;0.00;;;;;;;5.96;100.00;96675.72;4988559;28;20050;-62
2024/02/09 11:39:33;;;;;;;0.00;0.00;;;;;;;5.97;100.00;96667.09;4988911;28;20054;-63
2024/02/09 11:42:04;;;;;;;0.00;0.00;;;;;;;5.99;100.00;96670.19;4988472;28;20046;-63
2024/02/09 11:44:33;;;;;;;0.00;0.00;;;;;;;5.99;100.00;96669.41;4989116;28;20497;-62
2024/02/09 11:47:01;;;;;;;0.00;0.00;;;;;;;5.96;100.00;96670.22;4986512;28;20520;-62
2024/02/09 11:49:29;;;;;;;0.00;0.00;;;;;;;5.91;100.00;96663.25;4988235;28;20519;-62
2024/02/09 11:52:05;;;;;;;0.00;0.00;;;;;;;5.89;100.00;96664.84;4987185;28;20164;-62
2024/02/09 11:54:33;;;;;;;0.00;0.00;;;;;;;5.85;100.00;96666.88;4987656;28;20405;-62
2024/02/09 11:57:01;;;;;;;0.00;0.00;;;;;;;5.84;100.00;96663.31;4988966;28;20061;-62
2024/02/09 11:59:33;;;;;;;0.00;0.00;;;;;;;5.88;100.00;96668.75;4983186;28;20054;-61
2024/02/09 12:02:01;;;;;;;0.00;0.00;;;;;;;5.87;100.00;96661.75;4972473;28;20077;-62
2024/02/09 12:04:28;;;;;;;0.00;0.00;;;;;;;5.89;100.00;96670.34;4988518;28;20832;-62
2024/02/09 12:06:59;;;;;;;0.00;0.00;;;;;;;5.89;100.00;96665.63;4987558;28;20551;-61
2024/02/09 12:09:29;;;;;;;0.00;0.00;;;;;;;5.90;100.00;96660.91;4988278;28;20050;-61
2024/02/09 12:11:57;;;;;;;0.00;0.00;;;;;;;5.91;100.00;96662.44;4984721;28;20050;-61
2024/02/09 12:14:26;;;;;;;0.00;0.00;;;;;;;5.94;100.00;96661.63;4988021;28;20575;-63
2024/02/09 12:16:56;;;;;;;0.00;0.00;;;;;;;5.97;100.00;96655.31;4987597;28;20046;-62
2024/02/09 12:19:24;;;;;;;0.00;0.00;;;;;;;5.92;100.00;96653.03;4987971;28;20046;-62
2024/02/09 12:21:52;;;;;;;0.00;0.00;;;;;;;5.91;100.00;96656.97;4987828;28;20042;-62
2024/02/09 12:24:20;;;;;;;0.00;0.00;;;;;;;5.94;100.00;96656.13;4988276;28;20047;-62
2024/02/09 12:26:48;;;;;;;0.00;0.00;;;;;;;5.94;100.00;96650.66;4987457;28;20042;-62
2024/02/09 12:29:16;;;;;;;0.00;0.00;;;;;;;5.96;100.00;96642.78;4986792;28;20065;-65
2024/02/09 12:31:47;;;;;;;0.00;0.00;;;;;;;5.97;100.00;96638.84;4985346;28;20553;-62
2024/02/09 12:34:16;;;;;;;0.00;0.00;;;;;;;5.97;100.00;96639.63;4986438;28;20062;-62
2024/02/09 12:36:57;;;;;;;0.00;0.00;;;;;;;5.96;100.00;96643.56;4987588;28;20043;-62
2024/02/09 12:39:25;;;;;;;0.00;0.00;;;;;;;6.00;100.00;96647.03;4987485;28;20043;-62
2024/02/09 12:42:00;;;;;;;0.00;0.00;;;;;;;6.00;100.00;96638.81;4987538;28;20081;-62
2024/02/09 12:44:30;;;;;;;0.00;0.00;;;;;;;6.03;100.00;96643.47;4987103;28;20054;-62
2024/02/09 12:47:02;;;;;;;0.00;0.00;;;;;;;6.03;100.00;96637.97;4986593;28;20866;-62
2024/02/09 12:49:36;;;;;;;0.00;0.00;;;;;;;6.03;100.00;96637.19;4976822;28;20042;-62
2024/02/09 12:52:08;;;;;;;0.00;0.00;;;;;;;6.01;100.00;96637.59;4987137;28;20058;-61
2024/02/09 12:54:36;;;;;;;0.00;0.00;;;;;;;6.01;100.00;96636.84;4980250;28;20059;-62
2024/02/09 12:57:06;;;;;;;0.00;0.00;;;;;;;6.06;100.00;96637.13;4986065;28;20042;-63
2024/02/09 12:59:35;;;;;;;0.00;0.00;;;;;;;6.14;100.00;96640.56;4985919;28;20062;-62
2024/02/09 13:02:07;;;;;;;0.00;0.00;;;;;;;6.19;100.00;96631.84;4987443;28;20054;-62
2024/02/09 13:04:34;;;;;;;0.00;0.00;;;;;;;6.23;100.00;96649.03;4986372;28;20054;-62
2024/02/09 13:07:06;;;;;;;0.00;0.00;;;;;;;6.25;100.00;96643.91;4986499;28;20047;-60
2024/02/09 13:09:33;;;;;;;0.00;0.00;;;;;;;6.28;100.00;96636.78;4984774;28;20046;-62
2024/02/09 13:12:02;;;;;;;0.00;0.00;;;;;;;6.33;100.00;96644.59;4986835;28;20088;-63
2024/02/09 13:14:29;;;;;;;0.00;0.00;;;;;;;6.39;100.00;96642.91;4986089;28;20068;-63
2024/02/09 13:16:57;;;;;;;0.00;0.00;;;;;;;6.45;100.00;96642.03;4982208;28;20057;-63
2024/02/09 13:19:24;;;;;;;0.00;0.00;;;;;;;6.46;100.00;96635.31;4987082;28;20046;-64
2024/02/09 13:21:54;;;;;;;0.00;0.00;;;;;;;6.50;100.00;96627.81;4986401;28;20046;-63
2024/02/09 13:24:22;;;;;;;0.00;0.00;;;;;;;6.52;100.00;96630.91;4986459;28;20053;-63
2024/02/09 13:26:50;;;;;;;0.00;0.00;;;;;;;6.53;100.00;96626.97;4985575;28;20051;-63
2024/02/09 13:29:18;;;;;;;0.00;0.00;;;;;;;6.50;100.00;96627.81;4987340;28;20046;-62
2024/02/09 13:31:45;;;;;;;0.00;0.00;;;;;;;6.48;100.00;96629.41;4969481;28;20057;-63